Time;durP1;ratioP1;P1;durP2;ratioP2;P2;SDS_P1;SDS_P2;PMS_P1;PMS_P2;Temp;Humidity;BMP_temperature;BMP_pressure;BME280_temperature;BME280_humidity;BME280_pressure;Samples;Min_cycle;Max_cycle;Signal;HPM_P1;HPM_P2
2021/04/05 00:01:27;;;;;;;2.63;2.00;;;;;;;2.52;96.51;98813.63;10496896;28;20213;-73
2021/04/05 00:06:46;;;;;;;2.13;2.03;;;;;;;2.56;97.15;98808.28;10496576;28;20202;-73
2021/04/05 00:12:07;;;;;;;1.27;1.17;;;;;;;2.53;96.58;98793.50;10497833;28;20210;-73
2021/04/05 00:17:26;;;;;;;3.10;2.73;;;;;;;2.38;96.82;98788.13;10496532;28;20569;-73
2021/04/05 00:22:45;;;;;;;4.27;2.10;;;;;;;2.46;97.39;98768.13;10497276;28;20206;-73
2021/04/05 00:28:05;;;;;;;6.93;3.33;;;;;;;2.31;99.14;98760.78;10496767;28;20238;-73
2021/04/05 00:33:24;;;;;;;1.53;1.20;;;;;;;2.29;100.00;98770.41;10496847;28;20249;-73
2021/04/05 00:38:43;;;;;;;5.07;1.60;;;;;;;2.19;100.00;98758.19;10497210;28;20174;-73
2021/04/05 00:44:02;;;;;;;2.27;1.70;;;;;;;2.07;100.00;98746.66;10495581;28;20269;-74
2021/04/05 00:49:21;;;;;;;4.20;2.93;;;;;;;1.96;100.00;98740.97;10496151;28;20242;-74
2021/04/05 00:54:40;;;;;;;3.17;2.70;;;;;;;2.00;100.00;98732.94;10496106;28;20167;-74
2021/04/05 00:59:59;;;;;;;2.10;1.67;;;;;;;1.88;100.00;98711.31;10495521;28;20523;-74
2021/04/05 01:05:18;;;;;;;8.00;1.27;;;;;;;1.85;100.00;98687.63;10496578;28;20211;-73
2021/04/05 01:10:37;;;;;;;4.03;3.57;;;;;;;1.89;100.00;98677.63;10495476;28;20625;-74
2021/04/05 01:15:56;;;;;;;3.93;3.43;;;;;;;2.08;100.00;98664.91;10495338;28;20178;-73
2021/04/05 01:21:16;;;;;;;7.50;4.33;;;;;;;2.26;100.00;98654.47;10495302;28;20170;-74
2021/04/05 01:26:35;;;;;;;3.50;1.23;;;;;;;2.07;100.00;98647.06;10495780;28;20226;-73
2021/04/05 01:31:54;;;;;;;1.73;1.47;;;;;;;1.90;100.00;98638.53;10496657;28;20525;-73
2021/04/05 01:37:13;;;;;;;5.10;2.53;;;;;;;1.80;100.00;98623.59;10503737;28;20175;-73
2021/04/05 01:42:31;;;;;;;5.63;2.23;;;;;;;1.96;100.00;98629.78;10503401;28;20166;-73
2021/04/05 01:47:50;;;;;;;2.27;1.93;;;;;;;1.85;100.00;98614.41;10501459;28;20203;-73
2021/04/05 01:53:10;;;;;;;2.80;1.53;;;;;;;1.85;100.00;98609.00;10503045;28;20534;-73
2021/04/05 01:58:30;;;;;;;5.30;2.00;;;;;;;2.07;100.00;98605.59;10501424;28;20637;-73
2021/04/05 02:03:50;;;;;;;6.73;2.40;;;;;;;1.90;100.00;98595.13;10502559;28;20194;-73
2021/04/05 02:09:09;;;;;;;5.03;1.17;;;;;;;1.68;100.00;98572.19;10515632;28;20171;-73
2021/04/05 02:14:28;;;;;;;5.97;3.33;;;;;;;1.67;100.00;98569.84;10499901;28;20179;-73
2021/04/05 02:19:48;;;;;;;1.17;1.07;;;;;;;1.75;100.00;98556.06;10501973;28;20629;-73
2021/04/05 02:25:11;;;;;;;1.47;1.37;;;;;;;1.57;100.00;98537.84;10501455;28;20704;-73
2021/04/05 02:30:31;;;;;;;1.90;1.80;;;;;;;1.45;100.00;98512.78;10500373;28;20175;-73
2021/04/05 02:35:51;;;;;;;21.77;4.00;;;;;;;1.46;100.00;98512.44;10500298;28;20183;-73
2021/04/05 02:41:12;;;;;;;3.00;2.03;;;;;;;1.30;100.00;98490.00;10501206;28;20178;-73
2021/04/05 02:46:33;;;;;;;2.23;2.00;;;;;;;1.36;100.00;98483.19;10498933;28;20206;-73
2021/04/05 02:51:52;;;;;;;3.20;2.77;;;;;;;1.42;100.00;98470.94;10500855;28;20384;-73
2021/04/05 02:57:11;;;;;;;2.53;1.20;;;;;;;1.41;100.00;98463.94;10500421;28;20171;-73
2021/04/05 03:02:31;;;;;;;6.07;2.03;;;;;;;1.38;100.00;98448.38;10499163;28;20179;-73
2021/04/05 03:07:52;;;;;;;1.07;0.97;;;;;;;1.24;100.00;98453.50;10499340;28;20285;-73
2021/04/05 03:13:11;;;;;;;1.60;1.50;;;;;;;1.41;100.00;98436.84;10499907;28;20190;-73
2021/04/05 03:18:33;;;;;;;4.77;2.97;;;;;;;1.25;100.00;98419.84;10498542;28;20636;-73
2021/04/05 03:23:53;;;;;;;3.70;3.47;;;;;;;1.07;100.00;98418.69;10499063;28;20230;-73
2021/04/05 03:29:14;;;;;;;4.73;1.27;;;;;;;1.11;100.00;98422.25;10497989;28;20178;-73
2021/04/05 03:34:36;;;;;;;5.10;4.03;;;;;;;1.08;100.00;98395.09;10498889;28;20628;-73
2021/04/05 03:39:55;;;;;;;3.73;2.53;;;;;;;1.16;100.00;98378.66;10498849;28;20216;-74
2021/04/05 03:45:26;;;;;;;3.63;2.80;;;;;;;1.13;100.00;98354.97;10496883;28;20564;-73
2021/04/05 03:51:11;;;;;;;2.90;2.70;;;;;;;1.25;100.00;98356.78;10497485;28;20175;-73
2021/04/05 03:56:43;;;;;;;2.80;2.40;;;;;;;1.38;100.00;98353.56;10497743;28;20257;-73
2021/04/05 04:02:07;;;;;;;9.07;3.97;;;;;;;1.36;100.00;98333.38;10496845;28;20655;-73
2021/04/05 04:07:35;;;;;;;3.37;3.10;;;;;;;1.17;100.00;98326.06;10496511;28;20285;-74
2021/04/05 04:12:57;;;;;;;7.80;3.07;;;;;;;1.24;100.00;98318.06;10496835;28;20182;-73
2021/04/05 04:18:18;;;;;;;7.43;2.17;;;;;;;1.36;100.00;98303.59;10496078;28;20191;-74
2021/04/05 04:23:37;;;;;;;4.60;3.60;;;;;;;1.40;100.00;98282.78;10497477;28;20178;-73
2021/04/05 04:28:57;;;;;;;4.10;1.90;;;;;;;1.54;100.00;98253.97;10496229;28;20257;-73
2021/04/05 04:34:18;;;;;;;3.47;3.17;;;;;;;1.78;100.00;98250.91;10497413;28;20269;-73
2021/04/05 04:39:37;;;;;;;3.30;2.10;;;;;;;1.98;100.00;98238.88;10497174;28;20170;-72
2021/04/05 04:44:56;;;;;;;3.97;1.90;;;;;;;2.08;100.00;98222.00;10495689;28;20210;-73
2021/04/05 04:50:17;;;;;;;2.43;2.30;;;;;;;2.33;100.00;98210.34;10496971;28;20578;-73
2021/04/05 04:55:37;;;;;;;6.53;3.83;;;;;;;2.11;100.00;98191.41;10494601;28;20580;-73
2021/04/05 05:00:56;;;;;;;9.97;2.17;;;;;;;1.98;100.00;98198.19;10491795;28;20186;-72
2021/04/05 05:06:18;;;;;;;3.93;2.50;;;;;;;1.97;100.00;98196.63;10493126;28;20214;-72
2021/04/05 05:11:37;;;;;;;4.70;3.07;;;;;;;1.90;100.00;98188.38;10500754;28;20186;-74
2021/04/05 05:16:56;;;;;;;4.20;2.00;;;;;;;2.00;100.00;98195.91;10502772;28;20190;-73
2021/04/05 05:22:19;;;;;;;7.60;3.03;;;;;;;2.05;100.00;98180.09;10504209;28;20590;-73
2021/04/05 05:27:42;;;;;;;3.00;1.13;;;;;;;2.35;100.00;98172.78;10502263;28;20226;-74
2021/04/05 05:33:04;;;;;;;2.30;2.10;;;;;;;2.52;100.00;98166.81;10501454;28;20174;-73
2021/04/05 05:38:24;;;;;;;9.33;2.10;;;;;;;2.69;100.00;98144.53;10503709;28;20179;-73
2021/04/05 05:43:52;;;;;;;4.67;3.30;;;;;;;3.03;100.00;98148.78;10501785;28;20191;-74
2021/04/05 05:49:46;;;;;;;1.73;1.63;;;;;;;3.48;100.00;98138.31;10501978;28;20681;-73
2021/04/05 05:55:18;;;;;;;3.60;1.77;;;;;;;3.97;100.00;98113.06;10503071;28;20633;-75
2021/04/05 06:00:56;;;;;;;3.93;2.80;;;;;;;4.34;100.00;98121.84;10501395;28;20175;-74
2021/04/05 06:06:28;;;;;;;3.03;2.87;;;;;;;4.49;100.00;98107.13;10501197;28;20227;-74
2021/04/05 06:12:11;;;;;;;10.90;4.27;;;;;;;4.56;100.00;98096.25;10501318;28;20179;-74
2021/04/05 06:17:31;;;;;;;2.93;2.33;;;;;;;4.69;100.00;98102.16;10500336;28;20178;-74
2021/04/05 06:22:55;;;;;;;3.37;2.60;;;;;;;4.46;100.00;98099.72;10501964;28;20618;-75
2021/04/05 06:28:33;;;;;;;2.60;1.87;;;;;;;4.23;100.00;98112.06;10500810;28;20594;-74
2021/04/05 06:33:54;;;;;;;5.27;2.90;;;;;;;4.19;100.00;98093.00;10501357;28;20633;-74
2021/04/05 06:39:22;;;;;;;2.73;2.53;;;;;;;4.52;100.00;98100.94;10501312;28;20175;-74
2021/04/05 06:45:19;;;;;;;5.87;3.40;;;;;;;4.99;100.00;98085.09;10498376;28;20206;-74
2021/04/05 06:50:57;;;;;;;8.33;3.23;;;;;;;5.68;100.00;98086.31;10499788;28;20249;-74
2021/04/05 06:56:37;;;;;;;2.57;1.67;;;;;;;6.09;100.00;98080.03;10500629;28;20202;-75
2021/04/05 07:02:14;;;;;;;2.50;1.87;;;;;;;6.37;100.00;98069.03;10499130;28;20617;-75
2021/04/05 07:07:47;;;;;;;4.83;1.90;;;;;;;6.64;97.29;98051.75;10498489;28;20567;-75
2021/04/05 07:13:25;;;;;;;8.60;2.13;;;;;;;6.89;92.55;98057.06;10498700;28;20171;-74
2021/04/05 07:19:16;;;;;;;4.00;2.73;;;;;;;7.07;88.29;98055.00;10499721;28;20183;-74
2021/04/05 07:25:05;;;;;;;4.33;1.47;;;;;;;7.11;85.40;98055.78;10468027;28;20226;-74
2021/04/05 07:30:42;;;;;;;4.50;3.00;;;;;;;7.24;83.55;98050.19;10496995;28;20210;-75
2021/04/05 07:36:34;;;;;;;6.57;2.30;;;;;;;7.35;81.89;98045.41;10497971;28;20175;-75
2021/04/05 07:42:01;;;;;;;22.57;2.80;;;;;;;7.45;79.60;98041.81;10497802;28;20569;-75
2021/04/05 07:47:55;;;;;;;3.30;1.90;;;;;;;7.53;78.69;98042.56;10495824;28;20212;-75
2021/04/05 07:53:20;;;;;;;2.60;2.40;;;;;;;7.74;76.36;98026.72;10480505;28;20637;-75
2021/04/05 07:58:54;;;;;;;2.20;2.00;;;;;;;7.85;74.33;98043.78;10496540;28;20580;-75
2021/04/05 08:04:31;;;;;;;3.20;2.13;;;;;;;7.94;74.45;98019.47;10496668;28;20567;-75
2021/04/05 08:09:59;;;;;;;7.30;2.60;;;;;;;8.13;72.06;98016.88;10497824;28;20637;-75
2021/04/05 08:15:37;;;;;;;2.37;2.20;;;;;;;8.36;71.78;97986.13;10495663;28;20182;-75
2021/04/05 08:21:06;;;;;;;5.23;3.50;;;;;;;8.48;71.18;97985.59;10496600;28;20171;-75
2021/04/05 08:26:41;;;;;;;2.60;2.37;;;;;;;8.81;70.40;97982.78;10547793;28;20221;-75
2021/04/05 08:32:33;;;;;;;4.67;2.30;;;;;;;8.78;69.30;97978.91;10564719;28;20177;-75
2021/04/05 08:38:11;;;;;;;2.37;1.97;;;;;;;8.49;70.35;97987.13;10553531;28;20682;-75
2021/04/05 08:43:41;;;;;;;3.63;2.57;;;;;;;8.56;70.03;97993.31;10570826;28;20197;-75
2021/04/05 08:49:05;;;;;;;10.73;3.43;;;;;;;8.54;70.60;97986.69;10589777;28;20201;-74
2021/04/05 08:54:30;;;;;;;1.60;1.50;;;;;;;8.30;71.33;98006.97;10573940;28;20165;-75
2021/04/05 09:00:02;;;;;;;6.90;2.60;;;;;;;8.25;72.51;97988.22;10588076;28;20204;-75
2021/04/05 09:05:28;;;;;;;3.83;3.50;;;;;;;8.52;73.12;97970.63;10573369;28;20204;-74
2021/04/05 09:11:02;;;;;;;11.00;3.23;;;;;;;8.77;71.64;97973.81;10588855;28;20201;-74
2021/04/05 09:16:24;;;;;;;7.30;3.87;;;;;;;8.77;72.09;97974.59;10587293;28;20214;-74
2021/04/05 09:22:17;;;;;;;9.67;2.60;;;;;;;8.84;72.43;97971.00;10588474;28;20173;-75
2021/04/05 09:27:50;;;;;;;3.63;3.10;;;;;;;8.95;73.51;97964.16;10587114;28;20291;-74
2021/04/05 09:33:47;;;;;;;4.20;2.77;;;;;;;8.53;74.54;97969.44;10586314;28;20182;-75
2021/04/05 09:39:42;;;;;;;5.73;3.10;;;;;;;8.31;75.89;97961.94;10572228;28;20182;-75
2021/04/05 09:45:45;;;;;;;8.87;2.37;;;;;;;8.31;76.16;97970.16;10494638;28;20209;-74
2021/04/05 09:51:36;;;;;;;4.50;2.90;;;;;;;8.18;77.36;97969.13;10571591;28;20643;-74
2021/04/05 09:57:03;;;;;;;20.37;4.23;;;;;;;8.30;76.99;97949.44;10587125;28;20182;-74
2021/04/05 10:02:34;;;;;;;5.27;4.00;;;;;;;8.36;75.81;97940.31;10525427;28;20178;-76
2021/04/05 10:07:55;;;;;;;7.87;3.27;;;;;;;8.71;75.77;97933.59;10516024;28;20623;-74
2021/04/05 10:13:17;;;;;;;8.40;4.07;;;;;;;8.85;74.05;97932.16;10543786;28;20178;-74
2021/04/05 10:18:38;;;;;;;5.17;3.67;;;;;;;8.80;74.21;97913.44;10544038;28;20264;-75
2021/04/05 10:23:57;;;;;;;3.40;3.20;;;;;;;8.77;73.72;97918.97;10543056;28;20222;-75
2021/04/05 10:29:17;;;;;;;5.63;3.47;;;;;;;8.90;73.19;97926.22;10503580;28;20218;-75
2021/04/05 10:34:42;;;;;;;6.27;3.07;;;;;;;8.61;73.05;97916.06;10501628;28;20179;-75
2021/04/05 10:40:02;;;;;;;4.40;2.77;;;;;;;8.76;72.96;97895.50;10485880;28;20654;-74
2021/04/05 10:45:30;;;;;;;3.70;2.73;;;;;;;8.71;71.60;97886.97;10499501;28;20238;-74
2021/04/05 10:51:02;;;;;;;3.33;3.00;;;;;;;8.72;71.81;97892.03;10485521;28;20175;-75
2021/04/05 10:56:24;;;;;;;5.00;3.10;;;;;;;8.66;72.58;97882.75;10500546;28;20178;-76
2021/04/05 11:01:50;;;;;;;2.83;1.80;;;;;;;8.48;72.98;97895.16;10483533;28;20563;-75
2021/04/05 11:07:10;;;;;;;2.93;1.93;;;;;;;8.24;74.20;97890.78;10499499;28;20210;-75
2021/04/05 11:12:33;;;;;;;3.43;3.13;;;;;;;8.08;76.73;97876.88;10499955;28;20533;-73
2021/04/05 11:17:55;;;;;;;3.73;3.53;;;;;;;7.85;82.02;97876.78;10498392;28;20179;-74
2021/04/05 11:23:16;;;;;;;5.50;2.20;;;;;;;7.80;85.44;97860.84;10484261;28;20166;-73
2021/04/05 11:28:38;;;;;;;7.20;6.70;;;;;;;7.73;85.85;97869.13;10482036;28;20218;-73
2021/04/05 11:34:00;;;;;;;4.33;1.80;;;;;;;7.47;88.58;97880.78;10499142;28;20171;-73
2021/04/05 11:39:21;;;;;;;6.03;3.13;;;;;;;7.46;91.64;97868.28;10498897;28;20199;-73
2021/04/05 11:44:42;;;;;;;4.23;3.80;;;;;;;7.49;92.16;97863.94;10497199;28;20198;-73
2021/04/05 11:50:12;;;;;;;3.47;3.00;;;;;;;7.26;92.81;97872.81;10483257;28;20175;-74
2021/04/05 11:55:35;;;;;;;5.40;3.60;;;;;;;7.17;95.26;97856.09;10498266;28;20171;-74
2021/04/05 12:01:01;;;;;;;3.63;3.40;;;;;;;7.09;99.54;97842.13;10496988;28;20174;-74
2021/04/05 12:06:43;;;;;;;4.73;1.70;;;;;;;6.99;100.00;97840.25;10497543;28;20202;-74
2021/04/05 12:12:06;;;;;;;4.40;2.93;;;;;;;6.94;100.00;97851.66;10497660;28;20528;-74
2021/04/05 12:17:27;;;;;;;3.30;3.10;;;;;;;6.88;100.00;97845.03;10480856;28;20174;-74
2021/04/05 12:22:52;;;;;;;4.50;4.00;;;;;;;6.85;100.00;97837.66;10497488;28;20241;-74
2021/04/05 12:28:12;;;;;;;6.70;4.10;;;;;;;6.84;100.00;97849.78;10496834;28;20230;-74
2021/04/05 12:33:34;;;;;;;6.83;2.73;;;;;;;6.87;100.00;97847.00;10496822;28;20198;-75
2021/04/05 12:38:56;;;;;;;2.43;1.90;;;;;;;6.66;100.00;97857.34;10496931;28;20202;-74
2021/04/05 12:44:30;;;;;;;3.67;3.23;;;;;;;6.43;100.00;97852.44;10480775;28;20550;-74
2021/04/05 12:49:50;;;;;;;2.80;2.43;;;;;;;6.19;100.00;97863.53;10482034;28;20174;-74
2021/04/05 12:55:15;;;;;;;2.00;1.80;;;;;;;6.02;100.00;97863.63;10497161;28;20637;-73
2021/04/05 13:00:42;;;;;;;1.43;1.27;;;;;;;6.07;100.00;97849.56;10495503;28;20649;-73
2021/04/05 13:06:04;;;;;;;2.70;1.33;;;;;;;6.11;100.00;97862.03;10496306;28;20729;-73
2021/04/05 13:11:31;;;;;;;1.57;1.47;;;;;;;6.07;100.00;97853.06;10496936;28;20178;-73
2021/04/05 13:17:00;;;;;;;1.87;1.50;;;;;;;6.14;100.00;97836.63;10480058;28;20179;-73
2021/04/05 13:22:22;;;;;;;4.03;3.13;;;;;;;6.22;100.00;97848.31;10481238;28;20179;-72
2021/04/05 13:27:48;;;;;;;1.00;0.90;;;;;;;6.21;100.00;97863.13;10481838;28;20813;-72
2021/04/05 13:33:10;;;;;;;1.10;1.00;;;;;;;5.28;100.00;97919.59;10502620;28;20258;-73
2021/04/05 13:38:30;;;;;;;1.23;0.53;;;;;;;4.17;100.00;97940.19;10503711;28;20187;-72
2021/04/05 13:43:51;;;;;;;0.90;0.70;;;;;;;4.00;100.00;97959.97;10501894;28;20559;-74
2021/04/05 13:49:22;;;;;;;1.57;1.07;;;;;;;4.50;100.00;97958.94;10503292;28;20206;-73
2021/04/05 13:54:42;;;;;;;1.30;0.57;;;;;;;4.33;100.00;97977.94;10503172;28;20175;-73
2021/04/05 14:00:05;;;;;;;4.20;1.43;;;;;;;4.32;100.00;97996.22;10486230;28;20178;-73
2021/04/05 14:05:30;;;;;;;0.80;0.40;;;;;;;4.29;100.00;98002.41;10502192;28;20210;-73
2021/04/05 14:11:05;;;;;;;1.10;0.50;;;;;;;4.21;100.00;98011.72;10502360;28;20183;-73
2021/04/05 14:16:29;;;;;;;1.40;0.80;;;;;;;4.43;100.00;97996.25;10501181;28;20163;-73
2021/04/05 14:22:00;;;;;;;0.80;0.40;;;;;;;4.46;100.00;98007.16;10502102;28;20175;-73
2021/04/05 14:27:28;;;;;;;1.47;1.37;;;;;;;4.42;100.00;98017.25;10501234;28;20231;-73
2021/04/05 14:32:56;;;;;;;0.80;0.40;;;;;;;4.05;100.00;98038.47;10485305;28;20191;-73
2021/04/05 14:38:24;;;;;;;0.80;0.50;;;;;;;4.00;100.00;98046.22;10485824;28;20199;-74
2021/04/05 14:43:55;;;;;;;0.80;0.50;;;;;;;3.93;100.00;98057.88;10499877;28;20167;-73
2021/04/05 14:49:19;;;;;;;0.80;0.40;;;;;;;3.85;100.00;98076.47;10500868;28;20191;-73
2021/04/05 14:54:39;;;;;;;0.80;0.50;;;;;;;3.78;100.00;98068.25;10485413;28;20179;-73
2021/04/05 15:00:05;;;;;;;1.70;1.60;;;;;;;3.63;100.00;98086.41;10499433;28;20249;-73
2021/04/05 15:05:25;;;;;;;0.80;0.40;;;;;;;3.38;100.00;98137.09;10500117;28;20630;-74
2021/04/05 15:10:49;;;;;;;0.80;0.50;;;;;;;2.39;100.00;98162.72;10500148;28;20206;-73
2021/04/05 15:16:13;;;;;;;1.90;0.87;;;;;;;1.64;100.00;98162.03;10498671;28;20190;-74
2021/04/05 15:21:34;;;;;;;0.80;0.40;;;;;;;1.44;100.00;98170.59;10499523;28;20187;-74
2021/04/05 15:27:13;;;;;;;0.90;0.53;;;;;;;1.84;100.00;98170.88;10498644;28;20230;-73
2021/04/05 15:32:33;;;;;;;0.80;0.40;;;;;;;1.97;100.00;98183.88;10497460;28;20175;-74
2021/04/05 15:37:58;;;;;;;0.80;0.40;;;;;;;2.47;100.00;98203.19;10491299;28;20199;-74
2021/04/05 15:43:23;;;;;;;1.30;0.87;;;;;;;2.45;100.00;98205.47;10498890;28;20183;-73
2021/04/05 15:48:53;;;;;;;0.80;0.47;;;;;;;2.50;100.00;98207.09;10498065;28;20211;-73
2021/04/05 15:54:21;;;;;;;0.80;0.50;;;;;;;2.55;100.00;98232.00;10497862;28;20183;-73
2021/04/05 15:59:47;;;;;;;0.87;0.60;;;;;;;2.32;100.00;98254.91;10497125;28;20179;-73
2021/04/05 16:05:16;;;;;;;0.90;0.70;;;;;;;1.87;100.00;98265.03;10482839;28;20206;-74
2021/04/05 16:10:56;;;;;;;0.80;0.40;;;;;;;1.25;100.00;98268.16;10498192;28;20179;-74
2021/04/05 16:16:19;;;;;;;0.80;0.50;;;;;;;1.29;100.00;98266.31;10496530;28;20175;-73
2021/04/05 16:21:51;;;;;;;0.80;0.40;;;;;;;1.43;100.00;98260.34;10497812;28;20261;-72
2021/04/05 16:27:14;;;;;;;0.80;0.40;;;;;;;1.41;100.00;98249.13;10497010;28;20230;-74
2021/04/05 16:32:45;;;;;;;0.80;0.40;;;;;;;1.72;100.00;98252.38;10496058;28;20171;-73
2021/04/05 16:38:09;;;;;;;0.80;0.40;;;;;;;2.30;100.00;98249.06;10482178;28;20195;-74
2021/04/05 16:43:34;;;;;;;0.90;0.60;;;;;;;2.05;100.00;98255.25;10481015;28;20183;-74
2021/04/05 16:48:56;;;;;;;1.00;0.60;;;;;;;1.89;100.00;98257.31;10496496;28;20399;-74
2021/04/05 16:54:19;;;;;;;0.80;0.43;;;;;;;2.05;100.00;98261.47;10481792;28;20224;-74
2021/04/05 16:59:46;;;;;;;0.80;0.50;;;;;;;2.03;100.00;98271.09;10495448;28;20535;-74
2021/04/05 17:05:09;;;;;;;0.90;0.60;;;;;;;2.32;100.00;98275.84;10497841;28;20606;-74
2021/04/05 17:10:41;;;;;;;0.80;0.40;;;;;;;2.08;100.00;98284.38;10504585;28;20182;-74
2021/04/05 17:16:02;;;;;;;0.80;0.47;;;;;;;1.98;100.00;98277.59;10481610;28;20175;-73
2021/04/05 17:21:24;;;;;;;0.80;0.50;;;;;;;1.92;100.00;98283.72;10504486;28;20265;-74
2021/04/05 17:26:46;;;;;;;3.20;0.70;;;;;;;1.79;100.00;98306.72;10488016;28;20694;-74
2021/04/05 17:32:13;;;;;;;0.80;0.40;;;;;;;1.76;100.00;98312.88;10487633;28;20179;-74
2021/04/05 17:37:46;;;;;;;0.80;0.50;;;;;;;1.75;100.00;98314.00;10503561;28;20198;-73
2021/04/05 17:43:13;;;;;;;0.80;0.40;;;;;;;1.73;100.00;98324.44;10503764;28;20183;-74
2021/04/05 17:48:42;;;;;;;0.80;0.40;;;;;;;1.60;100.00;98325.75;10502213;28;20206;-74
2021/04/05 17:54:14;;;;;;;0.80;0.50;;;;;;;1.63;100.00;98333.13;10496614;28;20656;-74
2021/04/05 18:00:05;;;;;;;0.90;0.50;;;;;;;1.50;100.00;98348.00;10501750;28;20211;-75
2021/04/05 18:05:53;;;;;;;0.80;0.40;;;;;;;1.47;100.00;98356.06;10502500;28;20211;-73
2021/04/05 18:11:27;;;;;;;0.83;0.60;;;;;;;1.40;100.00;98364.81;10487342;28;20262;-73
2021/04/05 18:16:59;;;;;;;2.00;0.60;;;;;;;1.35;100.00;98375.97;10500328;28;20179;-74
2021/04/05 18:22:53;;;;;;;4.40;1.33;;;;;;;1.33;100.00;98391.00;10502190;28;20191;-73
2021/04/05 18:28:17;;;;;;;0.80;0.40;;;;;;;1.25;100.00;98400.13;10476358;28;20288;-74
2021/04/05 18:33:51;;;;;;;3.73;1.17;;;;;;;1.24;100.00;98423.69;10501572;28;20210;-74
2021/04/05 18:39:13;;;;;;;0.80;0.40;;;;;;;1.00;100.00;98436.72;10501407;28;20230;-73
2021/04/05 18:44:37;;;;;;;0.90;0.60;;;;;;;0.95;100.00;98453.22;10499800;28;20222;-73
2021/04/05 18:50:32;;;;;;;0.90;0.70;;;;;;;0.78;100.00;98461.69;10493907;28;20200;-74
2021/04/05 18:56:06;;;;;;;0.80;0.60;;;;;;;0.80;100.00;98472.97;10485748;28;20524;-74
2021/04/05 19:01:26;;;;;;;0.90;0.70;;;;;;;0.91;94.95;98485.63;10483465;28;20171;-74
2021/04/05 19:07:05;;;;;;;1.43;1.33;;;;;;;0.62;93.88;98489.91;10484941;28;20210;-74
2021/04/05 19:12:39;;;;;;;0.90;0.70;;;;;;;0.67;94.50;98503.97;10500197;28;20258;-73
2021/04/05 19:18:36;;;;;;;0.80;0.50;;;;;;;0.76;90.15;98517.31;10498551;28;20167;-73
2021/04/05 19:24:19;;;;;;;0.80;0.40;;;;;;;0.74;93.44;98519.59;10476729;28;20226;-74
2021/04/05 19:29:56;;;;;;;0.80;0.40;;;;;;;0.61;91.30;98526.22;10482870;28;20194;-73
2021/04/05 19:35:41;;;;;;;0.93;0.83;;;;;;;0.55;93.70;98524.91;10499082;28;20633;-73
2021/04/05 19:41:10;;;;;;;1.43;1.27;;;;;;;0.51;96.15;98537.53;10499061;28;20178;-73
2021/04/05 19:46:33;;;;;;;0.80;0.50;;;;;;;0.52;93.80;98539.13;10481824;28;20203;-73
2021/04/05 19:52:34;;;;;;;0.80;0.40;;;;;;;0.33;96.29;98537.09;10498789;28;20629;-74
2021/04/05 19:58:17;;;;;;;0.80;0.40;;;;;;;0.38;96.09;98538.75;10476491;28;20218;-73
2021/04/05 20:03:39;;;;;;;0.80;0.40;;;;;;;0.31;96.74;98549.38;10498197;28;20174;-74
2021/04/05 20:09:32;;;;;;;0.90;0.70;;;;;;;0.24;96.93;98544.56;10482306;28;20202;-74
2021/04/05 20:15:01;;;;;;;0.80;0.50;;;;;;;0.21;98.39;98556.06;10496684;28;20178;-74
2021/04/05 20:20:33;;;;;;;4.23;1.07;;;;;;;0.17;99.02;98559.78;10497750;28;20175;-74
2021/04/05 20:25:55;;;;;;;0.80;0.40;;;;;;;0.07;99.56;98549.50;10497345;28;20234;-74
2021/04/05 20:31:40;;;;;;;0.80;0.40;;;;;;;0.12;98.15;98546.53;10496375;28;20183;-74
2021/04/05 20:37:06;;;;;;;0.80;0.50;;;;;;;0.11;98.02;98553.06;10497041;28;20273;-74
2021/04/05 20:42:32;;;;;;;1.37;1.27;;;;;;;0.02;98.87;98553.22;10482229;28;20178;-74
2021/04/05 20:48:00;;;;;;;0.80;0.40;;;;;;;0.03;98.72;98556.69;10495355;28;20596;-73
2021/04/05 20:53:37;;;;;;;0.80;0.50;;;;;;;-0.04;98.63;98563.84;10497316;28;20174;-73
2021/04/05 20:59:05;;;;;;;0.80;0.47;;;;;;;-0.03;98.35;98577.00;10480376;28;20584;-75
2021/04/05 21:04:33;;;;;;;0.90;0.60;;;;;;;-0.04;99.19;98586.22;10481582;28;20175;-74
2021/04/05 21:09:53;;;;;;;0.80;0.40;;;;;;;-0.19;100.00;98586.94;10481447;28;20249;-74
2021/04/05 21:15:15;;;;;;;0.80;0.40;;;;;;;-0.10;98.48;98582.19;10479843;28;20171;-74
2021/04/05 21:20:42;;;;;;;0.80;0.50;;;;;;;-0.11;99.18;98580.63;10481300;28;20187;-74
2021/04/05 21:26:04;;;;;;;1.77;0.93;;;;;;;-0.15;100.00;98574.31;10496110;28;20696;-74
2021/04/05 21:31:29;;;;;;;0.80;0.40;;;;;;;-0.24;100.00;98589.88;10479889;28;20174;-74
2021/04/05 21:36:54;;;;;;;0.80;0.40;;;;;;;-0.35;100.00;98586.09;10496165;28;20211;-74
2021/04/05 21:42:29;;;;;;;1.57;1.33;;;;;;;-0.34;100.00;98584.97;10481105;28;20201;-73
2021/04/05 21:47:52;;;;;;;0.80;0.40;;;;;;;-0.39;100.00;98582.47;10494217;28;20240;-74
2021/04/05 21:53:23;;;;;;;0.90;0.70;;;;;;;-0.31;100.00;98586.19;10503410;28;20537;-73
2021/04/05 21:58:49;;;;;;;1.00;0.73;;;;;;;-0.29;99.80;98589.34;10502000;28;20171;-74
2021/04/05 22:04:12;;;;;;;0.80;0.40;;;;;;;-0.31;100.00;98592.38;10502951;28;20596;-74
2021/04/05 22:09:33;;;;;;;0.80;0.40;;;;;;;-0.40;100.00;98588.22;10502856;28;20258;-74
2021/04/05 22:14:55;;;;;;;1.73;1.53;;;;;;;-0.34;100.00;98593.06;10486055;28;20533;-74
2021/04/05 22:20:17;;;;;;;0.80;0.40;;;;;;;-0.50;100.00;98589.47;10502001;28;20206;-74
2021/04/05 22:25:39;;;;;;;0.80;0.50;;;;;;;-0.52;100.00;98607.13;10486507;28;20222;-74
2021/04/05 22:31:17;;;;;;;0.80;0.40;;;;;;;-0.62;100.00;98623.81;10493660;28;20573;-74
2021/04/05 22:37:02;;;;;;;0.90;0.60;;;;;;;-0.64;100.00;98607.91;10486508;28;20191;-74
2021/04/05 22:42:22;;;;;;;1.00;0.70;;;;;;;-0.80;100.00;98612.41;10501330;28;20253;-74
2021/04/05 22:47:42;;;;;;;1.10;1.00;;;;;;;-1.00;100.00;98617.91;10484220;28;20202;-74
2021/04/05 22:53:13;;;;;;;0.80;0.40;;;;;;;-1.18;100.00;98615.75;10478734;28;20166;-74
2021/04/05 22:58:36;;;;;;;0.90;0.80;;;;;;;-0.99;100.00;98621.41;10500522;28;20163;-74
2021/04/05 23:03:59;;;;;;;2.30;1.30;;;;;;;-0.86;100.00;98628.38;10485344;28;20187;-74
2021/04/05 23:09:24;;;;;;;0.80;0.40;;;;;;;-0.93;100.00;98639.75;10500219;28;20569;-75
2021/04/05 23:14:49;;;;;;;0.80;0.60;;;;;;;-0.94;100.00;98632.78;10498882;28;20562;-74
2021/04/05 23:20:14;;;;;;;1.00;0.90;;;;;;;-1.06;100.00;98631.97;10484666;28;20186;-74
2021/04/05 23:25:38;;;;;;;0.90;0.57;;;;;;;-0.94;100.00;98638.19;10499197;28;20222;-73
2021/04/05 23:31:03;;;;;;;0.80;0.40;;;;;;;-1.05;100.00;98634.31;10498171;28;20178;-73
2021/04/05 23:36:25;;;;;;;0.80;0.50;;;;;;;-1.11;100.00;98626.78;10499239;28;20664;-73
2021/04/05 23:41:52;;;;;;;3.57;2.80;;;;;;;-1.07;100.00;98614.19;10499018;28;20174;-74
2021/04/05 23:47:12;;;;;;;0.80;0.50;;;;;;;-1.01;100.00;98618.25;10497057;28;20206;-74
2021/04/05 23:52:32;;;;;;;0.90;0.67;;;;;;;-1.02;100.00;98608.56;10483586;28;20175;-74
2021/04/05 23:57:54;;;;;;;0.90;0.60;;;;;;;-1.01;100.00;98610.16;10498808;28;20178;-74
